Time;durP1;ratioP1;P1;durP2;ratioP2;P2;SDS_P1;SDS_P2;PMS_P1;PMS_P2;Temp;Humidity;BMP_temperature;BMP_pressure;BME280_temperature;BME280_humidity;BME280_pressure;Samples;Min_cycle;Max_cycle;Signal;HPM_P1;HPM_P2
2023/03/07 00:00:08;;;;;;;28.67;16.20;;;7.70;53.10;;;;;;4964438;28;20050;-46
2023/03/07 00:02:35;;;;;;;30.40;16.92;;;7.70;53.20;;;;;;4962532;28;20066;-46
2023/03/07 00:05:03;;;;;;;28.65;16.13;;;7.70;53.20;;;;;;4964045;28;20059;-46
2023/03/07 00:07:30;;;;;;;30.42;17.65;;;7.60;53.30;;;;;;4965677;28;20047;-43
2023/03/07 00:09:58;;;;;;;29.33;16.65;;;7.60;53.40;;;;;;4964712;28;20061;-43
2023/03/07 00:12:26;;;;;;;28.48;16.02;;;7.60;53.50;;;;;;4960846;28;20046;-49
2023/03/07 00:14:55;;;;;;;27.05;15.35;;;7.60;53.60;;;;;;4964447;28;20058;-46
2023/03/07 00:17:22;;;;;;;28.75;16.27;;;7.60;53.60;;;;;;4963915;28;20051;-46
2023/03/07 00:19:50;;;;;;;25.88;15.20;;;7.60;53.80;;;;;;4964845;28;20059;-45
2023/03/07 00:22:17;;;;;;;28.38;15.50;;;7.60;53.90;;;;;;4962078;28;20055;-43
2023/03/07 00:24:44;;;;;;;25.42;15.23;;;7.60;54.00;;;;;;4961512;28;20065;-44
2023/03/07 00:27:11;;;;;;;26.20;14.38;;;7.50;54.00;;;;;;4964715;28;20947;-48
2023/03/07 00:29:39;;;;;;;23.70;14.35;;;7.50;54.10;;;;;;4964755;28;20063;-45
2023/03/07 00:32:07;;;;;;;22.58;13.65;;;7.50;54.20;;;;;;4964352;28;20521;-46
2023/03/07 00:34:35;;;;;;;23.45;13.93;;;7.50;54.30;;;;;;4964396;28;20050;-45
2023/03/07 00:37:02;;;;;;;24.98;14.85;;;7.50;54.30;;;;;;4964098;28;20429;-46
2023/03/07 00:39:29;;;;;;;23.17;13.88;;;7.50;54.40;;;;;;4964643;28;20055;-44
2023/03/07 00:41:56;;;;;;;23.73;13.70;;;7.50;54.50;;;;;;4963117;28;20514;-47
2023/03/07 00:44:25;;;;;;;21.05;12.38;;;7.50;54.70;;;;;;4959466;28;20069;-46
2023/03/07 00:46:53;;;;;;;23.48;12.88;;;7.50;54.70;;;;;;4964220;28;20058;-44
2023/03/07 00:49:22;;;;;;;21.92;12.60;;;7.50;54.80;;;;;;4963850;28;20058;-42
2023/03/07 00:51:49;;;;;;;22.33;12.68;;;7.50;54.80;;;;;;4963764;28;21414;-44
2023/03/07 00:54:17;;;;;;;20.33;11.80;;;7.50;54.90;;;;;;4960844;28;20486;-42
2023/03/07 00:56:44;;;;;;;21.67;12.48;;;7.50;54.90;;;;;;4964737;28;20054;-48
2023/03/07 00:59:12;;;;;;;21.45;11.80;;;7.50;55.00;;;;;;4963348;28;20050;-45
2023/03/07 01:01:39;;;;;;;19.50;11.98;;;7.50;55.10;;;;;;4964274;28;20062;-44
2023/03/07 01:04:07;;;;;;;19.10;11.55;;;7.50;55.10;;;;;;4963380;28;20058;-45
2023/03/07 01:06:36;;;;;;;19.10;11.23;;;7.50;55.10;;;;;;4965429;28;20053;-44
2023/03/07 01:09:06;;;;;;;18.92;11.38;;;7.50;55.10;;;;;;4963568;28;20388;-44
2023/03/07 01:11:34;;;;;;;19.88;11.10;;;7.50;55.20;;;;;;4959064;28;20046;-46
2023/03/07 01:14:04;;;;;;;18.10;10.23;;;7.50;55.20;;;;;;4960694;28;20054;-44
2023/03/07 01:16:33;;;;;;;18.70;10.80;;;7.50;55.30;;;;;;4964312;28;20054;-43
2023/03/07 01:19:03;;;;;;;15.85;9.95;;;7.50;55.30;;;;;;4962435;28;20396;-43
2023/03/07 01:21:34;;;;;;;17.45;10.30;;;7.50;55.30;;;;;;4963441;28;20055;-48
2023/03/07 01:24:02;;;;;;;14.43;8.80;;;7.60;55.40;;;;;;4962533;28;20050;-44
2023/03/07 01:26:31;;;;;;;14.38;8.80;;;7.50;55.40;;;;;;4958491;28;20062;-43
2023/03/07 01:29:00;;;;;;;17.30;9.10;;;7.60;55.50;;;;;;4963964;28;20058;-44
2023/03/07 01:31:28;;;;;;;14.50;8.73;;;7.50;55.50;;;;;;4963309;28;20066;-47
2023/03/07 01:33:56;;;;;;;15.77;9.43;;;7.60;55.60;;;;;;4962963;28;20047;-44
2023/03/07 01:36:28;;;;;;;17.05;8.77;;;7.60;55.60;;;;;;4963832;28;20510;-46
2023/03/07 01:38:57;;;;;;;14.55;8.65;;;7.60;55.60;;;;;;4962932;28;20419;-46
2023/03/07 01:41:28;;;;;;;13.25;7.75;;;7.60;55.60;;;;;;4962670;28;20495;-47
2023/03/07 01:43:55;;;;;;;12.50;7.65;;;7.60;56.20;;;;;;4957882;28;20054;-46
2023/03/07 01:46:52;;;;;;;12.90;7.80;;;7.50;55.60;;;;;;4963418;28;20046;-44
2023/03/07 01:49:25;;;;;;;12.93;7.82;;;7.60;55.80;;;;;;4934755;28;20069;-46
2023/03/07 01:51:58;;;;;;;12.40;7.95;;;7.60;55.80;;;;;;4962493;28;20066;-42
2023/03/07 01:54:26;;;;;;;12.02;7.15;;;7.60;55.80;;;;;;4959330;28;20059;-45
2023/03/07 01:56:55;;;;;;;13.80;6.90;;;7.50;55.80;;;;;;4963188;28;20419;-45
2023/03/07 01:59:29;;;;;;;10.52;6.72;;;7.60;55.80;;;;;;4962747;28;20065;-43
2023/03/07 02:01:59;;;;;;;11.32;6.68;;;7.60;55.90;;;;;;4962418;28;21159;-43
2023/03/07 02:04:33;;;;;;;10.20;6.47;;;7.60;55.90;;;;;;4982330;23;20175;-46
2023/03/07 02:07:01;;;;;;;9.68;6.25;;;7.60;55.90;;;;;;4935287;29;20062;-50
2023/03/07 02:09:31;;;;;;;11.35;6.47;;;7.60;55.90;;;;;;4933229;28;20613;-47
2023/03/07 02:12:01;;;;;;;7.80;5.35;;;7.60;55.90;;;;;;4932317;28;20056;-44
2023/03/07 02:14:28;;;;;;;7.55;5.03;;;7.60;56.00;;;;;;4936947;28;20491;-45
2023/03/07 02:16:57;;;;;;;7.32;4.72;;;7.60;56.00;;;;;;4933312;29;20937;-44
2023/03/07 02:19:37;;;;;;;16.20;7.85;;;7.60;56.00;;;;;;4930468;28;20082;-45
2023/03/07 02:22:10;;;;;;;11.40;6.43;;;7.60;56.10;;;;;;4928590;28;20052;-46
2023/03/07 02:24:43;;;;;;;9.43;5.00;;;7.60;56.10;;;;;;4929148;29;20058;-47
2023/03/07 02:27:12;;;;;;;7.43;4.80;;;7.60;56.10;;;;;;4936118;28;20066;-46
2023/03/07 02:29:39;;;;;;;6.95;4.20;;;7.60;56.10;;;;;;4930552;28;20055;-44
2023/03/07 02:32:07;;;;;;;8.32;5.32;;;7.60;56.10;;;;;;4934753;28;20060;-47
2023/03/07 02:34:34;;;;;;;8.15;4.80;;;7.70;56.20;;;;;;4935020;29;20051;-46
2023/03/07 02:37:05;;;;;;;7.68;5.03;;;7.60;56.20;;;;;;4929707;28;20066;-49
2023/03/07 02:39:32;;;;;;;7.00;5.00;;;7.70;56.20;;;;;;4935125;29;20070;-47
2023/03/07 02:42:05;;;;;;;6.80;4.43;;;7.70;56.20;;;;;;4931045;28;20059;-46
2023/03/07 02:44:34;;;;;;;6.93;4.30;;;7.70;56.20;;;;;;4927648;28;20055;-45
2023/03/07 02:47:01;;;;;;;8.40;4.93;;;7.70;56.20;;;;;;4929911;29;20059;-46
2023/03/07 02:49:28;;;;;;;6.82;4.32;;;7.70;56.40;;;;;;4931431;29;20058;-44
2023/03/07 02:51:59;;;;;;;6.93;4.43;;;7.70;56.20;;;;;;4931139;28;20050;-45
2023/03/07 02:54:26;;;;;;;6.80;4.18;;;7.70;56.20;;;;;;4924534;29;20063;-45
2023/03/07 02:56:53;;;;;;;6.85;4.68;;;7.70;56.20;;;;;;4932869;29;20348;-44
2023/03/07 02:59:21;;;;;;;5.80;4.13;;;7.70;56.70;;;;;;4933127;28;20430;-47
2023/03/07 03:01:49;;;;;;;6.10;4.10;;;7.70;56.20;;;;;;4929870;28;20062;-48
2023/03/07 03:04:17;;;;;;;6.65;4.18;;;7.70;56.20;;;;;;4928727;28;20063;-47
2023/03/07 03:06:44;;;;;;;10.57;5.95;;;7.70;56.20;;;;;;4929872;29;20488;-49
2023/03/07 03:09:12;;;;;;;6.78;4.15;;;7.70;56.30;;;;;;4934639;28;20060;-44
2023/03/07 03:11:39;;;;;;;6.47;4.38;;;7.70;56.30;;;;;;4930196;29;20496;-45
2023/03/07 03:14:06;;;;;;;5.13;3.80;;;7.70;56.20;;;;;;4935991;29;20066;-51
2023/03/07 03:16:33;;;;;;;5.95;4.32;;;7.70;56.20;;;;;;4936434;28;20060;-50
2023/03/07 03:19:02;;;;;;;5.90;4.18;;;7.70;56.20;;;;;;4929661;28;20063;-53
2023/03/07 03:21:29;;;;;;;6.55;4.43;;;7.70;56.20;;;;;;4927367;29;20074;-52
2023/03/07 03:23:57;;;;;;;7.97;4.07;;;7.70;56.20;;;;;;4930387;29;20059;-51
2023/03/07 03:26:24;;;;;;;7.53;4.50;;;7.70;56.20;;;;;;4930086;28;20070;-49
2023/03/07 03:28:54;;;;;;;7.65;4.63;;;7.70;56.20;;;;;;4935331;29;20435;-50
2023/03/07 03:31:21;;;;;;;7.85;4.60;;;7.70;56.10;;;;;;4928767;28;20063;-50
2023/03/07 03:33:51;;;;;;;5.93;4.43;;;7.70;56.10;;;;;;4931270;29;20492;-49
2023/03/07 03:36:20;;;;;;;5.90;4.10;;;7.70;56.10;;;;;;4929981;28;20637;-51
2023/03/07 03:38:48;;;;;;;6.65;4.68;;;7.70;56.10;;;;;;4931357;29;20059;-49
2023/03/07 03:41:15;;;;;;;7.15;4.50;;;7.70;56.00;;;;;;4931962;28;20817;-52
2023/03/07 03:43:43;;;;;;;6.57;4.10;;;7.80;56.10;;;;;;4935318;29;20058;-49
2023/03/07 03:46:10;;;;;;;7.07;4.82;;;7.80;56.00;;;;;;4931785;28;20407;-49
2023/03/07 03:48:37;;;;;;;7.53;5.00;;;7.80;56.00;;;;;;4933052;29;20051;-52
2023/03/07 03:51:07;;;;;;;8.38;5.13;;;7.80;56.00;;;;;;4929160;28;20055;-51
2023/03/07 03:53:38;;;;;;;7.22;4.70;;;7.80;55.90;;;;;;4933263;28;20062;-52
2023/03/07 03:56:07;;;;;;;7.15;5.05;;;7.80;55.80;;;;;;4929951;28;20079;-51
2023/03/07 03:58:35;;;;;;;7.63;4.82;;;7.80;55.80;;;;;;4936796;28;20051;-52
2023/03/07 04:01:04;;;;;;;8.00;4.88;;;7.80;55.80;;;;;;4931957;28;20066;-52
2023/03/07 04:03:33;;;;;;;8.32;5.13;;;7.80;55.70;;;;;;4932385;28;20078;-51
2023/03/07 04:06:04;;;;;;;6.88;5.00;;;7.80;55.70;;;;;;4934315;28;20056;-52
2023/03/07 04:08:32;;;;;;;7.57;5.35;;;7.90;55.70;;;;;;4933809;28;20426;-51
2023/03/07 04:11:01;;;;;;;7.57;5.22;;;7.90;55.60;;;;;;4937574;28;20475;-50
2023/03/07 04:13:28;;;;;;;6.78;5.07;;;7.90;55.60;;;;;;4934558;28;20511;-52
2023/03/07 04:15:55;;;;;;;9.02;5.80;;;7.90;55.50;;;;;;4935943;28;20054;-52
2023/03/07 04:18:23;;;;;;;10.75;5.80;;;7.90;55.40;;;;;;4935456;28;20525;-53
2023/03/07 04:20:52;;;;;;;9.68;6.25;;;7.90;55.40;;;;;;4933626;28;20055;-53
2023/03/07 04:23:20;;;;;;;7.47;5.45;;;7.90;55.30;;;;;;4926940;28;20411;-52
2023/03/07 04:25:48;;;;;;;7.38;5.22;;;8.00;55.30;;;;;;4934331;28;20047;-49
2023/03/07 04:28:17;;;;;;;8.60;5.47;;;7.90;55.20;;;;;;4933223;28;20058;-50
2023/03/07 04:30:45;;;;;;;10.93;6.07;;;8.00;55.20;;;;;;4928527;28;20056;-49
2023/03/07 04:33:13;;;;;;;9.82;5.78;;;8.00;55.10;;;;;;4929453;28;20506;-52
2023/03/07 04:35:40;;;;;;;10.98;6.63;;;8.00;55.10;;;;;;4924698;28;20051;-52
2023/03/07 04:38:07;;;;;;;9.77;6.68;;;8.00;55.00;;;;;;4930718;28;20062;-51
2023/03/07 04:40:35;;;;;;;11.07;6.68;;;8.00;54.90;;;;;;4927666;28;20059;-53
2023/03/07 04:43:04;;;;;;;11.30;7.10;;;8.00;54.90;;;;;;4928743;28;20063;-52
2023/03/07 04:45:35;;;;;;;13.77;8.10;;;8.00;54.90;;;;;;4930837;28;20062;-51
2023/03/07 04:48:03;;;;;;;10.75;7.43;;;8.00;54.90;;;;;;4933863;28;20060;-50
2023/03/07 04:50:31;;;;;;;11.32;7.75;;;8.00;54.90;;;;;;4937296;28;20055;-49
2023/03/07 04:52:58;;;;;;;11.35;7.68;;;8.00;54.90;;;;;;4930937;28;20492;-52
2023/03/07 04:55:25;;;;;;;14.80;7.63;;;8.00;54.90;;;;;;4934509;28;20059;-51
2023/03/07 04:57:53;;;;;;;12.65;7.85;;;8.00;54.80;;;;;;4934515;28;20074;-49
2023/03/07 05:00:21;;;;;;;15.48;8.57;;;8.00;54.80;;;;;;4932357;28;20062;-50
2023/03/07 05:02:50;;;;;;;12.98;8.02;;;8.00;54.70;;;;;;4929378;28;20079;-53
2023/03/07 05:05:17;;;;;;;13.02;8.40;;;8.00;54.80;;;;;;4936266;28;20056;-50
2023/03/07 05:07:44;;;;;;;15.10;9.57;;;8.00;54.70;;;;;;4933685;28;20542;-49
2023/03/07 05:10:12;;;;;;;13.10;9.27;;;8.00;54.70;;;;;;4930324;28;20067;-49
2023/03/07 05:12:39;;;;;;;15.10;9.32;;;8.00;54.70;;;;;;4931129;28;20055;-50
2023/03/07 05:15:07;;;;;;;14.32;9.30;;;8.00;54.70;;;;;;4930342;28;20396;-51
2023/03/07 05:17:34;;;;;;;13.32;9.00;;;8.00;54.60;;;;;;4931193;28;20051;-49
2023/03/07 05:20:05;;;;;;;16.05;9.98;;;8.00;54.60;;;;;;4934456;28;20070;-54
2023/03/07 05:22:33;;;;;;;14.48;9.18;;;8.00;54.60;;;;;;4934272;28;20492;-50
2023/03/07 05:25:00;;;;;;;17.30;9.75;;;8.00;54.60;;;;;;4930587;28;20472;-53
2023/03/07 05:27:27;;;;;;;14.52;9.35;;;8.00;54.50;;;;;;4933809;28;20086;-49
2023/03/07 05:29:54;;;;;;;19.00;11.13;;;8.00;54.50;;;;;;4937654;28;20053;-50
2023/03/07 05:32:21;;;;;;;17.40;11.00;;;8.00;54.50;;;;;;4933376;28;20051;-50
2023/03/07 05:34:49;;;;;;;16.30;10.05;;;8.00;54.50;;;;;;4933000;28;20050;-50
2023/03/07 05:37:17;;;;;;;17.83;10.70;;;8.00;54.50;;;;;;4930037;28;20483;-50
2023/03/07 05:39:44;;;;;;;17.45;10.45;;;8.00;54.40;;;;;;4928172;28;20051;-52
2023/03/07 05:42:12;;;;;;;17.90;10.93;;;8.10;54.50;;;;;;4931559;28;20063;-49
2023/03/07 05:44:39;;;;;;;17.80;11.20;;;8.00;54.40;;;;;;4928936;28;20055;-50
2023/03/07 05:47:06;;;;;;;17.05;10.38;;;8.00;54.40;;;;;;4927933;28;20066;-52
2023/03/07 05:49:33;;;;;;;18.70;11.50;;;8.00;54.40;;;;;;4930754;28;20059;-49
2023/03/07 05:52:01;;;;;;;19.02;11.30;;;8.00;54.30;;;;;;4919800;28;20059;-54
2023/03/07 05:54:29;;;;;;;16.25;10.50;;;8.00;54.30;;;;;;4924113;28;20551;-49
2023/03/07 05:56:56;;;;;;;19.33;11.68;;;8.00;54.30;;;;;;4925730;28;20060;-52
2023/03/07 05:59:24;;;;;;;20.98;10.40;;;8.00;54.30;;;;;;4925897;28;20522;-52
2023/03/07 06:01:51;;;;;;;16.60;10.70;;;8.00;54.30;;;;;;4926799;29;20055;-49
2023/03/07 06:04:18;;;;;;;19.30;11.52;;;8.10;54.30;;;;;;4924427;29;20059;-50
2023/03/07 06:06:45;;;;;;;17.88;11.18;;;8.10;54.30;;;;;;4924980;29;20725;-50
2023/03/07 06:09:12;;;;;;;16.75;10.75;;;8.00;54.20;;;;;;4923629;28;20059;-51
2023/03/07 06:11:41;;;;;;;19.10;11.60;;;8.10;54.30;;;;;;4930311;28;20058;-50
2023/03/07 06:14:08;;;;;;;18.33;11.80;;;8.00;54.20;;;;;;4929904;28;20396;-50
2023/03/07 06:16:35;;;;;;;29.52;12.13;;;8.10;54.30;;;;;;4934625;29;20074;-49
2023/03/07 06:19:03;;;;;;;21.60;11.40;;;8.10;54.20;;;;;;4933286;28;20495;-51
2023/03/07 06:21:30;;;;;;;22.52;11.70;;;8.00;54.20;;;;;;4928154;28;20051;-51
2023/03/07 06:23:57;;;;;;;17.45;10.77;;;8.00;54.20;;;;;;4926227;29;20051;-53
2023/03/07 06:26:24;;;;;;;18.40;11.27;;;8.10;54.20;;;;;;4931080;28;20051;-49
2023/03/07 06:28:53;;;;;;;16.33;10.30;;;8.10;54.10;;;;;;4937125;28;20055;-50
2023/03/07 06:31:22;;;;;;;17.23;11.77;;;8.10;54.10;;;;;;4931255;28;20055;-52
2023/03/07 06:33:50;;;;;;;18.80;10.82;;;8.10;54.10;;;;;;4928135;28;20059;-49
2023/03/07 06:36:19;;;;;;;20.17;10.38;;;8.10;54.10;;;;;;4932560;28;20140;-50
2023/03/07 06:38:46;;;;;;;19.95;10.65;;;8.10;54.00;;;;;;4932501;28;20416;-47
2023/03/07 06:41:14;;;;;;;17.10;10.70;;;8.10;53.90;;;;;;4929935;28;20063;-44
2023/03/07 06:43:42;;;;;;;17.27;10.85;;;8.10;53.80;;;;;;4928139;28;20488;-45
2023/03/07 06:46:11;;;;;;;17.25;10.88;;;8.10;53.80;;;;;;4931386;28;20055;-46
2023/03/07 06:48:38;;;;;;;21.35;11.10;;;8.10;53.80;;;;;;4931042;29;20067;-45
2023/03/07 06:51:09;;;;;;;18.85;11.18;;;8.10;53.70;;;;;;4928667;28;20059;-45
2023/03/07 06:53:37;;;;;;;16.27;9.90;;;8.10;53.70;;;;;;4932574;28;20043;-45
2023/03/07 06:56:05;;;;;;;16.63;10.05;;;8.10;53.70;;;;;;4932193;28;20055;-47
2023/03/07 06:58:33;;;;;;;18.25;10.82;;;8.10;53.60;;;;;;4929873;28;20051;-44
2023/03/07 07:01:01;;;;;;;20.63;10.40;;;8.10;53.60;;;;;;4929172;28;20424;-45
2023/03/07 07:03:30;;;;;;;18.80;10.38;;;8.10;53.70;;;;;;4931179;28;20063;-50
2023/03/07 07:05:57;;;;;;;16.25;9.98;;;8.10;53.60;;;;;;4929562;29;20055;-45
2023/03/07 07:08:24;;;;;;;15.02;10.35;;;8.20;53.50;;;;;;4935668;28;20082;-46
2023/03/07 07:10:51;;;;;;;16.13;10.00;;;8.20;53.50;;;;;;4929794;28;20051;-44
2023/03/07 07:13:18;;;;;;;15.70;9.95;;;8.20;53.50;;;;;;4932355;28;20047;-46
2023/03/07 07:15:46;;;;;;;15.50;9.25;;;8.20;53.50;;;;;;4927995;28;20052;-46
2023/03/07 07:18:13;;;;;;;15.27;9.93;;;8.20;53.40;;;;;;4931184;28;20514;-45
2023/03/07 07:20:42;;;;;;;18.17;10.48;;;8.20;53.40;;;;;;4927422;29;20055;-44
2023/03/07 07:23:09;;;;;;;15.35;9.82;;;8.20;53.20;;;;;;4931979;28;20380;-46
2023/03/07 07:25:38;;;;;;;23.80;12.63;;;8.20;53.20;;;;;;4928124;28;20575;-45
2023/03/07 07:28:05;;;;;;;16.27;9.88;;;8.20;53.20;;;;;;4924052;29;20059;-45
2023/03/07 07:30:32;;;;;;;16.45;8.77;;;8.20;53.20;;;;;;4930534;28;20070;-45
2023/03/07 07:32:59;;;;;;;16.92;9.68;;;8.30;53.20;;;;;;4931453;28;20059;-44
2023/03/07 07:35:26;;;;;;;14.35;9.27;;;8.30;53.10;;;;;;4930606;29;20079;-44
2023/03/07 07:37:55;;;;;;;15.27;9.75;;;8.30;53.20;;;;;;4926626;28;20078;-53
2023/03/07 07:40:23;;;;;;;14.93;8.93;;;8.30;53.20;;;;;;4928058;28;20082;-50
2023/03/07 07:42:53;;;;;;;20.23;10.32;;;8.30;53.10;;;;;;4926798;28;20419;-50
2023/03/07 07:45:20;;;;;;;18.42;10.43;;;8.30;53.10;;;;;;4935617;28;20404;-45
2023/03/07 07:47:48;;;;;;;17.52;10.32;;;8.30;53.00;;;;;;4939120;28;20055;-47
2023/03/07 07:50:16;;;;;;;15.90;9.88;;;8.40;53.10;;;;;;4931459;28;20494;-47
2023/03/07 07:52:43;;;;;;;17.73;10.02;;;8.30;53.10;;;;;;4932838;28;20503;-53
2023/03/07 07:55:13;;;;;;;16.67;9.60;;;8.40;53.10;;;;;;4935995;29;20051;-48
2023/03/07 07:57:40;;;;;;;15.32;9.20;;;8.40;53.00;;;;;;4926995;28;20063;-45
2023/03/07 08:00:10;;;;;;;15.68;9.50;;;8.40;52.90;;;;;;4933641;28;20074;-48
2023/03/07 08:02:37;;;;;;;17.70;9.25;;;8.40;52.90;;;;;;4937800;29;20047;-47
2023/03/07 08:05:09;;;;;;;15.30;9.73;;;8.40;52.90;;;;;;4931135;28;20071;-47
2023/03/07 08:07:38;;;;;;;16.98;10.13;;;8.40;52.80;;;;;;4935438;28;20058;-47
2023/03/07 08:10:07;;;;;;;14.88;9.43;;;8.40;52.70;;;;;;4937959;29;20527;-49
2023/03/07 08:12:37;;;;;;;17.90;10.82;;;8.40;52.70;;;;;;4932758;28;20062;-46
2023/03/07 08:15:05;;;;;;;15.98;9.07;;;8.40;52.70;;;;;;4940129;29;20062;-45
2023/03/07 08:17:33;;;;;;;15.35;9.40;;;8.40;52.70;;;;;;4935924;28;20262;-44
2023/03/07 08:20:00;;;;;;;18.42;9.77;;;8.50;52.70;;;;;;4933171;28;20496;-44
2023/03/07 08:22:27;;;;;;;15.93;9.52;;;8.50;52.60;;;;;;4943662;28;20054;-43
2023/03/07 08:24:54;;;;;;;18.55;9.45;;;8.50;52.60;;;;;;4941574;28;20047;-51
2023/03/07 08:27:21;;;;;;;17.10;10.23;;;8.50;52.60;;;;;;4945371;28;20415;-51
2023/03/07 08:29:50;;;;;;;14.43;8.77;;;8.50;52.60;;;;;;4933905;28;20063;-50
2023/03/07 08:32:17;;;;;;;17.65;9.40;;;8.50;52.50;;;;;;4943832;29;20066;-44
2023/03/07 08:34:45;;;;;;;17.27;9.77;;;8.50;52.50;;;;;;4934643;28;20953;-47
2023/03/07 08:37:12;;;;;;;13.43;8.57;;;8.60;52.50;;;;;;4942700;28;20070;-45
2023/03/07 08:39:39;;;;;;;17.65;9.77;;;8.60;52.50;;;;;;4945317;28;20055;-44
2023/03/07 08:42:07;;;;;;;14.20;9.27;;;8.60;52.50;;;;;;4938626;28;20056;-48
2023/03/07 08:44:34;;;;;;;15.90;9.30;;;8.60;52.40;;;;;;4944770;28;20403;-47
2023/03/07 08:47:02;;;;;;;14.73;9.25;;;8.60;52.40;;;;;;4944332;28;20066;-44
2023/03/07 08:49:30;;;;;;;17.75;9.00;;;8.60;52.50;;;;;;4944268;29;20051;-48
2023/03/07 08:51:57;;;;;;;16.65;8.75;;;8.60;52.50;;;;;;4935518;28;20373;-47
2023/03/07 08:54:24;;;;;;;17.33;9.50;;;8.60;52.50;;;;;;4932268;28;20051;-44
2023/03/07 08:56:51;;;;;;;15.23;8.20;;;8.60;52.50;;;;;;4938611;28;20070;-44
2023/03/07 08:59:19;;;;;;;16.40;8.13;;;8.70;52.60;;;;;;4933846;28;21507;-51
2023/03/07 09:01:46;;;;;;;16.52;8.82;;;8.70;52.60;;;;;;4939188;29;20063;-57
2023/03/07 09:04:15;;;;;;;14.70;7.75;;;8.70;52.60;;;;;;4942229;29;20952;-51
2023/03/07 09:06:42;;;;;;;15.80;7.80;;;8.70;52.60;;;;;;4943980;28;20499;-57
2023/03/07 09:09:09;;;;;;;12.40;7.60;;;8.80;52.50;;;;;;4939352;29;20052;-53
2023/03/07 09:11:37;;;;;;;14.13;8.07;;;8.80;52.50;;;;;;4938663;28;20059;-52
2023/03/07 09:14:04;;;;;;;12.43;7.60;;;8.80;52.90;;;;;;4937578;28;20059;-52
2023/03/07 09:16:31;;;;;;;11.63;6.80;;;8.90;52.30;;;;;;4931693;28;20357;-52
2023/03/07 09:18:58;;;;;;;11.07;6.55;;;8.90;52.30;;;;;;4930159;29;20063;-59
2023/03/07 09:21:27;;;;;;;10.82;6.03;;;8.90;52.10;;;;;;4935331;28;20067;-54
2023/03/07 09:23:54;;;;;;;11.57;6.65;;;8.90;52.00;;;;;;4937976;28;20098;-52
2023/03/07 09:26:21;;;;;;;10.32;6.25;;;9.00;52.10;;;;;;4935464;28;20062;-51
2023/03/07 09:28:49;;;;;;;9.93;6.07;;;9.00;52.00;;;;;;4943346;28;20497;-53
2023/03/07 09:31:16;;;;;;;11.57;6.22;;;9.00;52.00;;;;;;4938475;28;20055;-52
2023/03/07 09:33:44;;;;;;;10.05;6.00;;;9.10;52.10;;;;;;4935575;28;20066;-53
2023/03/07 09:36:12;;;;;;;10.65;6.43;;;9.10;52.00;;;;;;4930375;28;20056;-53
2023/03/07 09:38:41;;;;;;;12.30;7.88;;;9.10;52.00;;;;;;4927607;28;20074;-51
2023/03/07 09:41:30;;;;;;;14.27;7.70;;;9.10;52.00;;;;;;4927581;28;20063;-59
2023/03/07 09:44:07;;;;;;;9.48;6.30;;;9.20;51.90;;;;;;4921839;28;20059;-51
2023/03/07 09:46:48;;;;;;;9.80;6.38;;;9.20;51.90;;;;;;4934742;28;20526;-57
2023/03/07 09:49:19;;;;;;;11.73;6.18;;;9.20;51.90;;;;;;4930998;28;20055;-56
2023/03/07 09:51:50;;;;;;;9.88;5.97;;;9.20;51.90;;;;;;4929240;28;20048;-58
2023/03/07 09:54:21;;;;;;;9.75;6.22;;;9.30;52.00;;;;;;4929322;28;20051;-54
2023/03/07 09:56:52;;;;;;;11.60;6.55;;;9.30;52.00;;;;;;4931851;28;20055;-54
2023/03/07 09:59:23;;;;;;;10.23;6.28;;;9.30;52.00;;;;;;4928281;28;20055;-52
2023/03/07 10:01:55;;;;;;;12.43;6.80;;;9.30;52.00;;;;;;4930174;28;20058;-50
2023/03/07 10:04:32;;;;;;;11.15;6.32;;;9.40;52.00;;;;;;4932049;28;20051;-55
2023/03/07 10:07:02;;;;;;;9.90;6.15;;;9.40;52.00;;;;;;4935029;28;20059;-54
2023/03/07 10:09:31;;;;;;;12.10;6.10;;;9.40;52.00;;;;;;4927499;28;20423;-55
2023/03/07 10:12:39;;;;;;;8.75;5.57;;;9.40;51.90;;;;;;4930716;28;20062;-53
2023/03/07 10:15:16;;;;;;;9.60;5.95;;;9.50;51.90;;;;;;4918733;29;20055;-54
2023/03/07 10:17:59;;;;;;;8.15;5.35;;;9.50;51.80;;;;;;4930907;29;20047;-53
2023/03/07 10:20:39;;;;;;;9.45;5.82;;;9.50;52.30;;;;;;4929278;28;20055;-53
2023/03/07 10:23:19;;;;;;;9.00;5.75;;;9.60;51.80;;;;;;4934976;28;20056;-53
2023/03/07 10:25:53;;;;;;;10.73;5.60;;;9.60;51.80;;;;;;4931414;28;20055;-52
2023/03/07 10:28:24;;;;;;;7.70;5.25;;;9.60;51.90;;;;;;4927921;29;20412;-52
2023/03/07 10:30:54;;;;;;;9.05;5.95;;;9.60;52.40;;;;;;4933238;29;20059;-54
2023/03/07 10:33:21;;;;;;;8.68;5.40;;;9.70;52.00;;;;;;4927894;28;20075;-52
2023/03/07 10:35:54;;;;;;;10.95;6.15;;;9.70;52.00;;;;;;4933870;29;20085;-58
2023/03/07 10:38:29;;;;;;;8.10;5.43;;;9.70;52.00;;;;;;4924749;28;20059;-51
2023/03/07 10:41:03;;;;;;;10.02;5.43;;;9.70;52.10;;;;;;4928880;28;20066;-54
2023/03/07 10:43:32;;;;;;;11.88;5.45;;;9.70;52.00;;;;;;4934419;28;20067;-52
2023/03/07 10:46:06;;;;;;;8.65;5.90;;;9.70;52.00;;;;;;4934356;28;20526;-55
2023/03/07 10:48:36;;;;;;;;;;;9.80;52.00;;;;;;4931585;28;20059;-56
2023/03/07 10:51:11;;;;;;;7.55;5.18;;;9.80;52.00;;;;;;4936235;28;19930;-54
2023/03/07 10:53:39;;;;;;;11.40;5.55;;;9.80;52.00;;;;;;4927343;28;20705;-55
2023/03/07 10:56:19;;;;;;;8.45;5.28;;;9.80;51.90;;;;;;4932680;28;20066;-53
2023/03/07 10:59:00;;;;;;;7.90;5.18;;;9.80;51.80;;;;;;4934548;28;20055;-51
2023/03/07 11:01:28;;;;;;;8.48;5.32;;;9.80;51.80;;;;;;4929504;28;20063;-55
2023/03/07 11:04:00;;;;;;;7.63;5.03;;;9.80;51.80;;;;;;4929495;28;20166;-53
2023/03/07 11:06:32;;;;;;;9.32;5.70;;;9.90;51.80;;;;;;4931127;28;20686;-56
2023/03/07 11:09:18;;;;;;;8.90;5.32;;;9.90;51.80;;;;;;4928602;29;20048;-53
2023/03/07 11:11:56;;;;;;;7.40;5.05;;;9.90;51.70;;;;;;4932512;28;20086;-55
2023/03/07 11:14:24;;;;;;;7.15;4.60;;;9.90;51.70;;;;;;4934549;28;20062;-52
2023/03/07 11:16:54;;;;;;;7.13;4.68;;;9.90;51.70;;;;;;4935588;28;20048;-50
2023/03/07 11:19:35;;;;;;;8.15;4.65;;;9.90;51.70;;;;;;4927398;29;20055;-52
2023/03/07 11:22:04;;;;;;;7.78;4.45;;;10.00;51.70;;;;;;4936574;28;20050;-54
2023/03/07 11:24:38;;;;;;;9.55;4.78;;;10.00;51.70;;;;;;4935716;28;20052;-56
2023/03/07 11:27:21;;;;;;;6.95;4.30;;;10.00;51.60;;;;;;4934464;28;20055;-55
2023/03/07 11:30:15;;;;;;;7.13;4.53;;;10.10;51.60;;;;;;4934167;28;20059;-55
2023/03/07 11:32:48;;;;;;;7.97;4.40;;;10.10;51.60;;;;;;4938148;28;20074;-53
2023/03/07 11:35:21;;;;;;;6.18;3.88;;;10.10;51.50;;;;;;4935153;29;20515;-53
2023/03/07 11:38:01;;;;;;;6.22;3.95;;;10.20;51.50;;;;;;4933637;28;21453;-54
2023/03/07 11:40:33;;;;;;;6.80;3.70;;;10.20;51.30;;;;;;4929494;29;20063;-53
2023/03/07 11:43:13;;;;;;;7.53;3.60;;;10.20;51.30;;;;;;4933248;28;20504;-52
2023/03/07 11:45:50;;;;;;;6.05;3.95;;;10.20;51.20;;;;;;4937951;28;20062;-53
2023/03/07 11:48:46;;;;;;;6.40;4.20;;;10.20;51.10;;;;;;4939340;28;20060;-53
2023/03/07 11:51:31;;;;;;;6.95;3.45;;;10.20;50.90;;;;;;4934809;28;20508;-55
2023/03/07 11:54:07;;;;;;;5.45;3.40;;;10.30;50.90;;;;;;4937926;28;20055;-56
2023/03/07 11:56:39;;;;;;;6.43;3.60;;;10.30;50.90;;;;;;4935999;29;20683;-49
2023/03/07 11:59:44;;;;;;;5.40;3.42;;;10.30;50.70;;;;;;4936993;28;20062;-54
2023/03/07 12:02:39;;;;;;;6.53;3.65;;;10.20;50.60;;;;;;4932309;29;20621;-52
2023/03/07 12:05:19;;;;;;;4.90;3.30;;;10.30;50.60;;;;;;4932734;28;20059;-54
2023/03/07 12:08:05;;;;;;;4.22;3.00;;;10.30;50.50;;;;;;4934041;28;20060;-55
2023/03/07 12:10:45;;;;;;;4.50;3.05;;;10.30;50.30;;;;;;4935925;28;20051;-55
2023/03/07 12:13:23;;;;;;;28.15;11.15;;;10.30;50.20;;;;;;4931218;28;20058;-54
2023/03/07 12:16:01;;;;;;;8.10;4.50;;;10.30;50.20;;;;;;4932038;29;20039;-59
2023/03/07 12:18:53;;;;;;;5.90;3.63;;;10.30;50.20;;;;;;4931371;29;20055;-57
2023/03/07 12:21:40;;;;;;;7.65;3.72;;;10.30;50.10;;;;;;4930535;28;20063;-55
2023/03/07 12:24:16;;;;;;;5.72;3.03;;;10.30;49.90;;;;;;4928467;28;20070;-53
2023/03/07 12:26:51;;;;;;;4.82;3.17;;;10.30;50.00;;;;;;4929694;28;20503;-55
2023/03/07 12:29:36;;;;;;;7.70;4.13;;;10.30;49.90;;;;;;4938904;28;20055;-54
2023/03/07 12:32:09;;;;;;;5.20;3.67;;;10.30;49.70;;;;;;4932049;28;20074;-52
2023/03/07 12:34:41;;;;;;;6.05;3.38;;;10.30;49.70;;;;;;4932390;28;20067;-53
2023/03/07 12:37:13;;;;;;;6.50;4.05;;;10.30;49.80;;;;;;4936633;28;20047;-53
2023/03/07 12:39:48;;;;;;;6.68;3.90;;;10.30;49.60;;;;;;4929017;28;20051;-57
2023/03/07 12:42:30;;;;;;;7.30;3.70;;;10.30;49.50;;;;;;4929254;28;20047;-55
2023/03/07 12:45:00;;;;;;;6.20;3.80;;;10.30;49.50;;;;;;4928208;28;20059;-54
2023/03/07 12:47:33;;;;;;;9.25;4.50;;;10.30;49.50;;;;;;4932772;28;20051;-55
2023/03/07 12:50:07;;;;;;;6.00;4.22;;;10.30;49.50;;;;;;4935941;28;20062;-54
2023/03/07 12:52:43;;;;;;;8.63;4.28;;;10.30;49.60;;;;;;4932348;28;20048;-54
2023/03/07 12:55:22;;;;;;;7.20;4.07;;;10.30;49.60;;;;;;4932723;28;20058;-54
2023/03/07 12:57:57;;;;;;;7.53;4.65;;;10.30;49.70;;;;;;4937263;28;20057;-54
2023/03/07 13:00:26;;;;;;;9.43;5.18;;;10.30;49.50;;;;;;4938459;28;20047;-55
2023/03/07 13:03:00;;;;;;;11.73;4.53;;;10.40;49.50;;;;;;4936692;29;20059;-52